ETGG

Gluecksburg / Meierwik Airport

Gluecksburg, Germany
METAR ETGG 271120Z 11009KT 9999 SCT010 BKN015 18/14 Q1024 WHT
Observed Flight Rules
May-27 @ 11:20 UTC (43 minutes ago) Marginal Visual Flight Rules
Wind Visibility Clouds
110° at 9 knots 10,000+ meters
  • Scattered at 1,000' AGL
  • Broken at 1,500' AGL
Temperatures Readings
Current 18°C / 64°F
Dewpoint 14°C / 57°F
Humidity 78%
Altimeter 30.24" Hg
Pressure 1024 hPa
Elevation 33
METAR ETGG 271120Z 11009KT 9999 SCT010 BKN015 18/14 Q1024 WHT
Observed Flight Rules
May-27 @ 11:20 UTC
(43 minutes ago)
MVFR
Wind Visibility
110° at 9 knots 10,000+ meters
Clouds
  • Scattered at 1,000' AGL
  • Broken at 1,500' AGL
Temperature Dewpoint
18°C / 64°F 14°C / 57°F
Humidity Altimeter Pressure
78% 30.24" Hg 1024 hPa